sensor_id;sensor_type;location;lat;lon;timestamp;P1;durP1;ratioP1;P2;durP2;ratioP2
3891;SDS011;1961;48.194;16.370;2022-12-18T00:03:50;50.75;;;10.63;;
3891;SDS011;1961;48.194;16.370;2022-12-18T00:06:16;48.95;;;10.20;;
3891;SDS011;1961;48.194;16.370;2022-12-18T00:08:43;46.38;;;9.98;;
3891;SDS011;1961;48.194;16.370;2022-12-18T00:11:13;53.53;;;11.95;;
3891;SDS011;1961;48.194;16.370;2022-12-18T00:13:40;50.08;;;9.43;;
3891;SDS011;1961;48.194;16.370;2022-12-18T00:16:07;47.33;;;9.77;;
3891;SDS011;1961;48.194;16.370;2022-12-18T00:18:34;46.67;;;9.68;;
3891;SDS011;1961;48.194;16.370;2022-12-18T00:21:01;47.13;;;9.52;;
3891;SDS011;1961;48.194;16.370;2022-12-18T00:23:28;53.70;;;9.05;;
3891;SDS011;1961;48.194;16.370;2022-12-18T00:25:54;49.53;;;9.40;;
3891;SDS011;1961;48.194;16.370;2022-12-18T00:28:21;50.38;;;10.32;;
3891;SDS011;1961;48.194;16.370;2022-12-18T00:30:47;47.05;;;9.95;;
3891;SDS011;1961;48.194;16.370;2022-12-18T00:33:17;47.15;;;10.05;;
3891;SDS011;1961;48.194;16.370;2022-12-18T00:35:43;46.72;;;9.77;;
3891;SDS011;1961;48.194;16.370;2022-12-18T00:38:09;46.65;;;9.82;;
3891;SDS011;1961;48.194;16.370;2022-12-18T00:40:35;48.83;;;8.88;;
3891;SDS011;1961;48.194;16.370;2022-12-18T00:43:02;46.88;;;9.68;;
3891;SDS011;1961;48.194;16.370;2022-12-18T00:45:29;45.58;;;8.10;;
3891;SDS011;1961;48.194;16.370;2022-12-18T00:47:56;43.90;;;8.43;;
3891;SDS011;1961;48.194;16.370;2022-12-18T00:50:23;45.00;;;9.10;;
3891;SDS011;1961;48.194;16.370;2022-12-18T00:52:49;50.05;;;9.50;;
3891;SDS011;1961;48.194;16.370;2022-12-18T00:55:16;45.40;;;9.20;;
3891;SDS011;1961;48.194;16.370;2022-12-18T00:57:42;48.55;;;9.98;;
3891;SDS011;1961;48.194;16.370;2022-12-18T01:00:10;48.08;;;10.88;;
3891;SDS011;1961;48.194;16.370;2022-12-18T01:02:37;48.92;;;11.23;;
3891;SDS011;1961;48.194;16.370;2022-12-18T01:05:03;50.35;;;10.65;;
3891;SDS011;1961;48.194;16.370;2022-12-18T01:07:30;49.50;;;10.40;;
3891;SDS011;1961;48.194;16.370;2022-12-18T01:09:56;49.25;;;12.10;;
3891;SDS011;1961;48.194;16.370;2022-12-18T01:12:22;50.75;;;10.90;;
3891;SDS011;1961;48.194;16.370;2022-12-18T01:14:48;49.45;;;10.85;;
3891;SDS011;1961;48.194;16.370;2022-12-18T01:17:14;50.00;;;11.25;;
3891;SDS011;1961;48.194;16.370;2022-12-18T01:19:40;53.50;;;11.75;;
3891;SDS011;1961;48.194;16.370;2022-12-18T01:22:07;49.45;;;11.73;;
3891;SDS011;1961;48.194;16.370;2022-12-18T01:24:33;51.70;;;12.35;;
3891;SDS011;1961;48.194;16.370;2022-12-18T01:26:59;50.78;;;11.13;;
3891;SDS011;1961;48.194;16.370;2022-12-18T01:29:25;50.88;;;11.60;;
3891;SDS011;1961;48.194;16.370;2022-12-18T01:31:54;61.40;;;12.85;;
3891;SDS011;1961;48.194;16.370;2022-12-18T01:34:21;52.08;;;14.05;;
3891;SDS011;1961;48.194;16.370;2022-12-18T01:36:47;51.05;;;13.35;;
3891;SDS011;1961;48.194;16.370;2022-12-18T01:39:13;52.67;;;13.73;;
3891;SDS011;1961;48.194;16.370;2022-12-18T01:41:41;50.58;;;13.10;;
3891;SDS011;1961;48.194;16.370;2022-12-18T01:50:07;57.80;;;14.88;;
3891;SDS011;1961;48.194;16.370;2022-12-18T01:52:34;55.95;;;14.13;;
3891;SDS011;1961;48.194;16.370;2022-12-18T01:55:03;56.45;;;14.20;;
3891;SDS011;1961;48.194;16.370;2022-12-18T01:57:30;54.28;;;13.35;;
3891;SDS011;1961;48.194;16.370;2022-12-18T01:59:59;51.97;;;12.18;;
3891;SDS011;1961;48.194;16.370;2022-12-18T02:02:27;54.75;;;13.45;;
3891;SDS011;1961;48.194;16.370;2022-12-18T02:04:54;56.80;;;14.73;;
3891;SDS011;1961;48.194;16.370;2022-12-18T02:07:27;57.20;;;13.60;;
3891;SDS011;1961;48.194;16.370;2022-12-18T02:09:59;54.72;;;12.98;;
3891;SDS011;1961;48.194;16.370;2022-12-18T02:12:28;53.85;;;13.13;;
3891;SDS011;1961;48.194;16.370;2022-12-18T02:15:12;58.35;;;14.32;;
3891;SDS011;1961;48.194;16.370;2022-12-18T02:20:24;55.17;;;13.40;;
3891;SDS011;1961;48.194;16.370;2022-12-18T02:28:23;53.03;;;14.10;;
3891;SDS011;1961;48.194;16.370;2022-12-18T02:30:51;57.45;;;14.82;;
3891;SDS011;1961;48.194;16.370;2022-12-18T02:33:19;56.75;;;15.73;;
3891;SDS011;1961;48.194;16.370;2022-12-18T02:35:46;59.45;;;16.52;;
3891;SDS011;1961;48.194;16.370;2022-12-18T02:38:13;54.53;;;14.05;;
3891;SDS011;1961;48.194;16.370;2022-12-18T02:40:40;54.60;;;14.73;;
3891;SDS011;1961;48.194;16.370;2022-12-18T02:43:10;56.95;;;14.40;;
3891;SDS011;1961;48.194;16.370;2022-12-18T02:45:45;56.53;;;14.23;;
3891;SDS011;1961;48.194;16.370;2022-12-18T02:48:11;61.85;;;15.40;;
3891;SDS011;1961;48.194;16.370;2022-12-18T02:50:39;56.38;;;16.05;;
3891;SDS011;1961;48.194;16.370;2022-12-18T02:58:25;60.35;;;14.45;;
3891;SDS011;1961;48.194;16.370;2022-12-18T03:03:26;56.75;;;15.60;;
3891;SDS011;1961;48.194;16.370;2022-12-18T03:05:57;58.10;;;15.73;;
3891;SDS011;1961;48.194;16.370;2022-12-18T03:08:27;57.45;;;15.18;;
3891;SDS011;1961;48.194;16.370;2022-12-18T03:10:59;67.95;;;16.88;;
3891;SDS011;1961;48.194;16.370;2022-12-18T03:13:49;59.97;;;15.90;;
3891;SDS011;1961;48.194;16.370;2022-12-18T03:16:15;57.05;;;15.45;;
3891;SDS011;1961;48.194;16.370;2022-12-18T03:18:54;57.95;;;14.98;;
3891;SDS011;1961;48.194;16.370;2022-12-18T03:21:23;57.70;;;14.90;;
3891;SDS011;1961;48.194;16.370;2022-12-18T03:23:51;53.47;;;12.63;;
3891;SDS011;1961;48.194;16.370;2022-12-18T03:26:19;58.13;;;15.30;;
3891;SDS011;1961;48.194;16.370;2022-12-18T03:28:49;56.70;;;14.43;;
3891;SDS011;1961;48.194;16.370;2022-12-18T03:31:17;58.38;;;14.38;;
3891;SDS011;1961;48.194;16.370;2022-12-18T03:33:45;52.83;;;14.50;;
3891;SDS011;1961;48.194;16.370;2022-12-18T03:36:12;61.60;;;16.67;;
3891;SDS011;1961;48.194;16.370;2022-12-18T03:38:38;55.90;;;15.77;;
3891;SDS011;1961;48.194;16.370;2022-12-18T03:43:51;57.17;;;16.63;;
3891;SDS011;1961;48.194;16.370;2022-12-18T03:46:26;58.00;;;16.00;;
3891;SDS011;1961;48.194;16.370;2022-12-18T03:49:10;57.63;;;16.42;;
3891;SDS011;1961;48.194;16.370;2022-12-18T03:51:47;61.53;;;17.02;;
3891;SDS011;1961;48.194;16.370;2022-12-18T03:54:14;60.80;;;16.50;;
3891;SDS011;1961;48.194;16.370;2022-12-18T03:56:44;55.70;;;14.60;;
3891;SDS011;1961;48.194;16.370;2022-12-18T03:59:12;56.22;;;14.07;;
3891;SDS011;1961;48.194;16.370;2022-12-18T04:01:40;57.78;;;16.45;;
3891;SDS011;1961;48.194;16.370;2022-12-18T04:04:08;55.42;;;14.88;;
3891;SDS011;1961;48.194;16.370;2022-12-18T04:06:36;57.63;;;14.57;;
3891;SDS011;1961;48.194;16.370;2022-12-18T04:09:03;61.10;;;15.48;;
3891;SDS011;1961;48.194;16.370;2022-12-18T04:11:30;61.13;;;15.93;;
3891;SDS011;1961;48.194;16.370;2022-12-18T04:13:56;57.85;;;15.23;;
3891;SDS011;1961;48.194;16.370;2022-12-18T04:16:24;61.00;;;16.45;;
3891;SDS011;1961;48.194;16.370;2022-12-18T04:18:53;59.65;;;17.65;;
3891;SDS011;1961;48.194;16.370;2022-12-18T04:21:20;61.72;;;15.45;;
3891;SDS011;1961;48.194;16.370;2022-12-18T04:23:46;61.45;;;15.40;;
3891;SDS011;1961;48.194;16.370;2022-12-18T04:26:12;63.92;;;16.20;;
3891;SDS011;1961;48.194;16.370;2022-12-18T04:28:38;63.03;;;16.75;;
3891;SDS011;1961;48.194;16.370;2022-12-18T04:31:04;62.63;;;16.83;;
3891;SDS011;1961;48.194;16.370;2022-12-18T04:33:31;59.47;;;15.70;;
3891;SDS011;1961;48.194;16.370;2022-12-18T04:35:57;64.95;;;18.65;;
3891;SDS011;1961;48.194;16.370;2022-12-18T04:38:26;61.05;;;16.80;;
3891;SDS011;1961;48.194;16.370;2022-12-18T04:40:52;60.13;;;16.67;;
3891;SDS011;1961;48.194;16.370;2022-12-18T04:43:18;61.80;;;17.48;;
3891;SDS011;1961;48.194;16.370;2022-12-18T04:45:44;57.38;;;15.07;;
3891;SDS011;1961;48.194;16.370;2022-12-18T04:48:11;58.53;;;16.13;;
3891;SDS011;1961;48.194;16.370;2022-12-18T04:50:37;61.33;;;16.70;;
3891;SDS011;1961;48.194;16.370;2022-12-18T04:53:03;63.25;;;17.33;;
3891;SDS011;1961;48.194;16.370;2022-12-18T04:55:29;61.97;;;17.02;;
3891;SDS011;1961;48.194;16.370;2022-12-18T04:57:55;59.45;;;16.58;;
3891;SDS011;1961;48.194;16.370;2022-12-18T05:00:22;62.08;;;17.77;;
3891;SDS011;1961;48.194;16.370;2022-12-18T05:02:48;60.92;;;15.63;;
3891;SDS011;1961;48.194;16.370;2022-12-18T05:05:14;61.30;;;16.17;;
3891;SDS011;1961;48.194;16.370;2022-12-18T05:07:40;58.65;;;15.70;;
3891;SDS011;1961;48.194;16.370;2022-12-18T05:10:07;64.65;;;16.48;;
3891;SDS011;1961;48.194;16.370;2022-12-18T05:12:34;62.35;;;17.23;;
3891;SDS011;1961;48.194;16.370;2022-12-18T05:15:20;60.50;;;18.48;;
3891;SDS011;1961;48.194;16.370;2022-12-18T05:17:46;60.88;;;15.43;;
3891;SDS011;1961;48.194;16.370;2022-12-18T05:20:12;61.33;;;16.15;;
3891;SDS011;1961;48.194;16.370;2022-12-18T05:22:38;57.40;;;15.88;;
3891;SDS011;1961;48.194;16.370;2022-12-18T05:25:04;56.03;;;15.32;;
3891;SDS011;1961;48.194;16.370;2022-12-18T05:27:31;54.83;;;14.95;;
3891;SDS011;1961;48.194;16.370;2022-12-18T05:29:57;57.35;;;15.15;;
3891;SDS011;1961;48.194;16.370;2022-12-18T05:32:23;55.97;;;15.23;;
3891;SDS011;1961;48.194;16.370;2022-12-18T05:34:49;52.47;;;13.75;;
3891;SDS011;1961;48.194;16.370;2022-12-18T05:37:15;58.95;;;15.30;;
3891;SDS011;1961;48.194;16.370;2022-12-18T05:39:42;58.70;;;17.80;;
3891;SDS011;1961;48.194;16.370;2022-12-18T05:42:08;57.03;;;14.45;;
3891;SDS011;1961;48.194;16.370;2022-12-18T05:44:35;55.92;;;14.65;;
3891;SDS011;1961;48.194;16.370;2022-12-18T05:47:01;53.70;;;13.38;;
3891;SDS011;1961;48.194;16.370;2022-12-18T05:49:27;58.40;;;16.08;;
3891;SDS011;1961;48.194;16.370;2022-12-18T05:51:53;59.10;;;15.15;;
3891;SDS011;1961;48.194;16.370;2022-12-18T05:54:19;56.67;;;15.93;;
3891;SDS011;1961;48.194;16.370;2022-12-18T05:56:45;55.67;;;13.73;;
3891;SDS011;1961;48.194;16.370;2022-12-18T05:59:12;61.85;;;15.80;;
3891;SDS011;1961;48.194;16.370;2022-12-18T06:01:38;57.90;;;15.93;;
3891;SDS011;1961;48.194;16.370;2022-12-18T06:04:04;60.40;;;15.85;;
3891;SDS011;1961;48.194;16.370;2022-12-18T06:06:30;57.22;;;14.93;;
3891;SDS011;1961;48.194;16.370;2022-12-18T06:08:57;57.08;;;14.40;;
3891;SDS011;1961;48.194;16.370;2022-12-18T06:11:24;58.00;;;14.82;;
3891;SDS011;1961;48.194;16.370;2022-12-18T06:13:51;55.35;;;15.00;;
3891;SDS011;1961;48.194;16.370;2022-12-18T06:16:18;57.13;;;15.77;;
3891;SDS011;1961;48.194;16.370;2022-12-18T06:18:44;54.95;;;15.95;;
3891;SDS011;1961;48.194;16.370;2022-12-18T06:21:10;56.70;;;15.27;;
3891;SDS011;1961;48.194;16.370;2022-12-18T06:23:36;57.97;;;16.90;;
3891;SDS011;1961;48.194;16.370;2022-12-18T06:26:04;55.60;;;14.65;;
3891;SDS011;1961;48.194;16.370;2022-12-18T06:28:30;57.78;;;14.93;;
3891;SDS011;1961;48.194;16.370;2022-12-18T06:30:57;57.85;;;15.90;;
3891;SDS011;1961;48.194;16.370;2022-12-18T06:33:25;59.78;;;15.38;;
3891;SDS011;1961;48.194;16.370;2022-12-18T06:35:52;52.65;;;14.38;;
3891;SDS011;1961;48.194;16.370;2022-12-18T06:38:18;58.60;;;15.25;;
3891;SDS011;1961;48.194;16.370;2022-12-18T06:40:44;60.70;;;17.20;;
3891;SDS011;1961;48.194;16.370;2022-12-18T06:43:10;59.13;;;16.45;;
3891;SDS011;1961;48.194;16.370;2022-12-18T06:45:36;54.97;;;14.48;;
3891;SDS011;1961;48.194;16.370;2022-12-18T06:48:02;57.17;;;15.73;;
3891;SDS011;1961;48.194;16.370;2022-12-18T06:50:29;57.00;;;15.40;;
3891;SDS011;1961;48.194;16.370;2022-12-18T06:52:55;58.40;;;18.17;;
3891;SDS011;1961;48.194;16.370;2022-12-18T06:55:21;60.95;;;16.95;;
3891;SDS011;1961;48.194;16.370;2022-12-18T06:57:47;57.60;;;15.55;;
3891;SDS011;1961;48.194;16.370;2022-12-18T07:00:13;57.65;;;15.45;;
3891;SDS011;1961;48.194;16.370;2022-12-18T07:02:40;72.97;;;17.05;;
3891;SDS011;1961;48.194;16.370;2022-12-18T07:05:06;59.40;;;15.88;;
3891;SDS011;1961;48.194;16.370;2022-12-18T07:07:33;58.35;;;15.45;;
3891;SDS011;1961;48.194;16.370;2022-12-18T07:09:59;57.63;;;15.80;;
3891;SDS011;1961;48.194;16.370;2022-12-18T07:12:28;55.78;;;16.23;;
3891;SDS011;1961;48.194;16.370;2022-12-18T07:14:54;59.15;;;15.50;;
3891;SDS011;1961;48.194;16.370;2022-12-18T07:17:21;58.55;;;16.58;;
3891;SDS011;1961;48.194;16.370;2022-12-18T07:19:47;61.67;;;17.30;;
3891;SDS011;1961;48.194;16.370;2022-12-18T07:22:13;69.57;;;18.80;;
3891;SDS011;1961;48.194;16.370;2022-12-18T07:24:39;63.03;;;19.00;;
3891;SDS011;1961;48.194;16.370;2022-12-18T07:27:05;64.38;;;18.27;;
3891;SDS011;1961;48.194;16.370;2022-12-18T07:29:32;67.80;;;19.13;;
3891;SDS011;1961;48.194;16.370;2022-12-18T07:31:58;63.67;;;17.85;;
3891;SDS011;1961;48.194;16.370;2022-12-18T07:34:24;70.65;;;20.27;;
3891;SDS011;1961;48.194;16.370;2022-12-18T07:36:50;63.38;;;18.60;;
3891;SDS011;1961;48.194;16.370;2022-12-18T07:39:16;66.57;;;19.42;;
3891;SDS011;1961;48.194;16.370;2022-12-18T07:41:42;65.93;;;17.20;;
3891;SDS011;1961;48.194;16.370;2022-12-18T07:44:28;64.82;;;18.67;;
3891;SDS011;1961;48.194;16.370;2022-12-18T07:46:55;66.97;;;18.17;;
3891;SDS011;1961;48.194;16.370;2022-12-18T07:49:24;64.47;;;19.02;;
3891;SDS011;1961;48.194;16.370;2022-12-18T07:51:50;60.08;;;18.80;;
3891;SDS011;1961;48.194;16.370;2022-12-18T07:54:16;64.70;;;19.15;;
3891;SDS011;1961;48.194;16.370;2022-12-18T07:56:42;67.82;;;21.05;;
3891;SDS011;1961;48.194;16.370;2022-12-18T07:59:09;67.18;;;20.98;;
3891;SDS011;1961;48.194;16.370;2022-12-18T08:01:35;65.22;;;20.45;;
3891;SDS011;1961;48.194;16.370;2022-12-18T08:04:02;66.85;;;20.25;;
3891;SDS011;1961;48.194;16.370;2022-12-18T08:06:28;64.35;;;18.30;;
3891;SDS011;1961;48.194;16.370;2022-12-18T08:08:54;71.47;;;21.50;;
3891;SDS011;1961;48.194;16.370;2022-12-18T08:11:21;65.15;;;18.92;;
3891;SDS011;1961;48.194;16.370;2022-12-18T08:13:48;65.18;;;19.52;;
3891;SDS011;1961;48.194;16.370;2022-12-18T08:16:14;65.60;;;19.02;;
3891;SDS011;1961;48.194;16.370;2022-12-18T08:18:40;68.80;;;21.05;;
3891;SDS011;1961;48.194;16.370;2022-12-18T08:21:07;72.00;;;19.88;;
3891;SDS011;1961;48.194;16.370;2022-12-18T08:23:34;66.90;;;19.30;;
3891;SDS011;1961;48.194;16.370;2022-12-18T08:26:01;67.35;;;20.70;;
3891;SDS011;1961;48.194;16.370;2022-12-18T08:28:27;63.83;;;18.73;;
3891;SDS011;1961;48.194;16.370;2022-12-18T08:30:53;65.38;;;19.90;;
3891;SDS011;1961;48.194;16.370;2022-12-18T08:33:19;69.13;;;20.58;;
3891;SDS011;1961;48.194;16.370;2022-12-18T08:35:45;66.07;;;20.20;;
3891;SDS011;1961;48.194;16.370;2022-12-18T08:38:12;66.15;;;20.00;;
3891;SDS011;1961;48.194;16.370;2022-12-18T08:40:38;69.35;;;20.70;;
3891;SDS011;1961;48.194;16.370;2022-12-18T08:43:04;65.40;;;19.35;;
3891;SDS011;1961;48.194;16.370;2022-12-18T08:45:49;76.43;;;21.60;;
3891;SDS011;1961;48.194;16.370;2022-12-18T08:48:15;67.93;;;20.52;;
3891;SDS011;1961;48.194;16.370;2022-12-18T08:50:41;69.70;;;22.40;;
3891;SDS011;1961;48.194;16.370;2022-12-18T08:53:07;70.75;;;21.58;;
3891;SDS011;1961;48.194;16.370;2022-12-18T08:55:34;68.70;;;21.33;;
3891;SDS011;1961;48.194;16.370;2022-12-18T08:58:00;68.05;;;19.65;;
3891;SDS011;1961;48.194;16.370;2022-12-18T09:00:26;64.70;;;20.05;;
3891;SDS011;1961;48.194;16.370;2022-12-18T09:02:52;72.05;;;22.48;;
3891;SDS011;1961;48.194;16.370;2022-12-18T09:05:18;73.88;;;21.50;;
3891;SDS011;1961;48.194;16.370;2022-12-18T09:07:45;70.72;;;21.40;;
3891;SDS011;1961;48.194;16.370;2022-12-18T09:10:11;76.20;;;20.40;;
3891;SDS011;1961;48.194;16.370;2022-12-18T09:12:37;67.68;;;21.58;;
3891;SDS011;1961;48.194;16.370;2022-12-18T09:15:03;70.82;;;21.58;;
3891;SDS011;1961;48.194;16.370;2022-12-18T09:17:29;72.47;;;18.75;;
3891;SDS011;1961;48.194;16.370;2022-12-18T09:19:55;69.25;;;22.75;;
3891;SDS011;1961;48.194;16.370;2022-12-18T09:22:22;70.00;;;22.23;;
3891;SDS011;1961;48.194;16.370;2022-12-18T09:24:48;73.05;;;22.55;;
3891;SDS011;1961;48.194;16.370;2022-12-18T09:27:14;72.68;;;22.90;;
3891;SDS011;1961;48.194;16.370;2022-12-18T09:29:40;66.75;;;19.17;;
3891;SDS011;1961;48.194;16.370;2022-12-18T09:32:07;73.93;;;23.05;;
3891;SDS011;1961;48.194;16.370;2022-12-18T09:34:33;76.10;;;21.05;;
3891;SDS011;1961;48.194;16.370;2022-12-18T09:36:59;66.50;;;21.10;;
3891;SDS011;1961;48.194;16.370;2022-12-18T09:39:25;75.85;;;22.77;;
3891;SDS011;1961;48.194;16.370;2022-12-18T09:41:52;72.85;;;22.38;;
3891;SDS011;1961;48.194;16.370;2022-12-18T09:49:21;68.88;;;22.02;;
3891;SDS011;1961;48.194;16.370;2022-12-18T09:51:56;70.78;;;20.23;;
3891;SDS011;1961;48.194;16.370;2022-12-18T09:54:29;70.65;;;21.35;;
3891;SDS011;1961;48.194;16.370;2022-12-18T09:56:57;81.32;;;23.33;;
3891;SDS011;1961;48.194;16.370;2022-12-18T09:59:25;62.80;;;15.38;;
3891;SDS011;1961;48.194;16.370;2022-12-18T10:01:52;70.97;;;21.17;;
3891;SDS011;1961;48.194;16.370;2022-12-18T10:04:19;72.78;;;21.85;;
3891;SDS011;1961;48.194;16.370;2022-12-18T10:06:51;66.47;;;20.90;;
3891;SDS011;1961;48.194;16.370;2022-12-18T10:09:22;67.53;;;20.20;;
3891;SDS011;1961;48.194;16.370;2022-12-18T10:11:56;76.20;;;18.77;;
3891;SDS011;1961;48.194;16.370;2022-12-18T10:14:26;72.97;;;21.02;;
3891;SDS011;1961;48.194;16.370;2022-12-18T10:17:07;69.15;;;19.95;;
3891;SDS011;1961;48.194;16.370;2022-12-18T10:19:39;68.47;;;19.73;;
3891;SDS011;1961;48.194;16.370;2022-12-18T10:27:15;68.97;;;20.00;;
3891;SDS011;1961;48.194;16.370;2022-12-18T10:29:44;71.20;;;20.88;;
3891;SDS011;1961;48.194;16.370;2022-12-18T10:32:19;69.82;;;20.45;;
3891;SDS011;1961;48.194;16.370;2022-12-18T10:34:48;70.72;;;19.50;;
3891;SDS011;1961;48.194;16.370;2022-12-18T10:37:19;68.47;;;20.50;;
3891;SDS011;1961;48.194;16.370;2022-12-18T10:39:46;71.78;;;19.23;;
3891;SDS011;1961;48.194;16.370;2022-12-18T10:42:30;70.85;;;20.45;;
3891;SDS011;1961;48.194;16.370;2022-12-18T10:45:11;64.60;;;17.20;;
3891;SDS011;1961;48.194;16.370;2022-12-18T10:47:59;70.78;;;20.08;;
3891;SDS011;1961;48.194;16.370;2022-12-18T10:50:34;65.45;;;19.45;;
3891;SDS011;1961;48.194;16.370;2022-12-18T10:53:03;72.10;;;19.77;;
3891;SDS011;1961;48.194;16.370;2022-12-18T10:55:34;72.78;;;21.25;;
3891;SDS011;1961;48.194;16.370;2022-12-18T11:00:39;68.40;;;20.60;;
3891;SDS011;1961;48.194;16.370;2022-12-18T11:03:28;74.20;;;22.20;;
3891;SDS011;1961;48.194;16.370;2022-12-18T11:06:03;69.85;;;20.08;;
3891;SDS011;1961;48.194;16.370;2022-12-18T11:08:30;65.38;;;20.02;;
3891;SDS011;1961;48.194;16.370;2022-12-18T11:10:56;69.05;;;22.00;;
3891;SDS011;1961;48.194;16.370;2022-12-18T11:13:23;68.15;;;22.23;;
3891;SDS011;1961;48.194;16.370;2022-12-18T11:15:50;70.53;;;21.38;;
3891;SDS011;1961;48.194;16.370;2022-12-18T11:18:30;81.70;;;23.20;;
3891;SDS011;1961;48.194;16.370;2022-12-18T11:20:57;66.15;;;18.98;;
3891;SDS011;1961;48.194;16.370;2022-12-18T11:23:25;72.43;;;21.63;;
3891;SDS011;1961;48.194;16.370;2022-12-18T11:25:56;73.38;;;20.92;;
3891;SDS011;1961;48.194;16.370;2022-12-18T11:31:09;83.53;;;22.50;;
3891;SDS011;1961;48.194;16.370;2022-12-18T11:33:39;66.45;;;23.38;;
3891;SDS011;1961;48.194;16.370;2022-12-18T11:36:07;72.03;;;21.58;;
3891;SDS011;1961;48.194;16.370;2022-12-18T11:38:41;67.40;;;21.33;;
3891;SDS011;1961;48.194;16.370;2022-12-18T11:41:21;77.45;;;21.48;;
3891;SDS011;1961;48.194;16.370;2022-12-18T11:44:09;72.65;;;20.20;;
3891;SDS011;1961;48.194;16.370;2022-12-18T11:46:39;71.07;;;20.40;;
3891;SDS011;1961;48.194;16.370;2022-12-18T11:49:12;73.95;;;22.15;;
3891;SDS011;1961;48.194;16.370;2022-12-18T11:54:28;73.68;;;20.67;;
3891;SDS011;1961;48.194;16.370;2022-12-18T11:59:52;73.55;;;21.73;;
3891;SDS011;1961;48.194;16.370;2022-12-18T12:05:05;70.30;;;21.30;;
3891;SDS011;1961;48.194;16.370;2022-12-18T12:07:46;63.72;;;19.10;;
3891;SDS011;1961;48.194;16.370;2022-12-18T12:18:18;60.80;;;16.85;;
3891;SDS011;1961;48.194;16.370;2022-12-18T12:23:22;71.00;;;22.92;;
3891;SDS011;1961;48.194;16.370;2022-12-18T12:25:54;80.82;;;24.35;;
3891;SDS011;1961;48.194;16.370;2022-12-18T12:28:41;68.88;;;22.63;;
3891;SDS011;1961;48.194;16.370;2022-12-18T12:31:27;73.10;;;22.60;;
3891;SDS011;1961;48.194;16.370;2022-12-18T12:38:55;66.80;;;20.95;;
3891;SDS011;1961;48.194;16.370;2022-12-18T12:41:24;73.90;;;21.05;;
3891;SDS011;1961;48.194;16.370;2022-12-18T12:44:18;66.25;;;19.40;;
3891;SDS011;1961;48.194;16.370;2022-12-18T12:46:45;70.55;;;21.00;;
3891;SDS011;1961;48.194;16.370;2022-12-18T12:49:14;68.70;;;21.73;;
3891;SDS011;1961;48.194;16.370;2022-12-18T12:51:45;70.88;;;21.73;;
3891;SDS011;1961;48.194;16.370;2022-12-18T12:54:19;74.22;;;20.98;;
3891;SDS011;1961;48.194;16.370;2022-12-18T12:57:30;69.20;;;19.55;;
3891;SDS011;1961;48.194;16.370;2022-12-18T13:02:28;67.03;;;19.13;;
3891;SDS011;1961;48.194;16.370;2022-12-18T13:10:38;73.05;;;21.65;;
3891;SDS011;1961;48.194;16.370;2022-12-18T13:13:11;73.85;;;24.27;;
3891;SDS011;1961;48.194;16.370;2022-12-18T13:15:40;74.10;;;20.80;;
3891;SDS011;1961;48.194;16.370;2022-12-18T13:20:41;72.75;;;23.00;;
3891;SDS011;1961;48.194;16.370;2022-12-18T13:25:53;73.82;;;20.98;;
3891;SDS011;1961;48.194;16.370;2022-12-18T13:31:07;73.68;;;22.50;;
3891;SDS011;1961;48.194;16.370;2022-12-18T13:36:12;80.10;;;22.98;;
3891;SDS011;1961;48.194;16.370;2022-12-18T13:38:39;73.57;;;23.98;;
3891;SDS011;1961;48.194;16.370;2022-12-18T13:48:51;80.55;;;24.42;;
3891;SDS011;1961;48.194;16.370;2022-12-18T13:51:18;71.55;;;20.25;;
3891;SDS011;1961;48.194;16.370;2022-12-18T13:53:47;72.68;;;22.90;;
3891;SDS011;1961;48.194;16.370;2022-12-18T13:56:20;78.18;;;21.40;;
3891;SDS011;1961;48.194;16.370;2022-12-18T13:59:03;73.30;;;20.95;;
3891;SDS011;1961;48.194;16.370;2022-12-18T14:01:31;66.57;;;21.35;;
3891;SDS011;1961;48.194;16.370;2022-12-18T14:06:43;71.60;;;24.83;;
3891;SDS011;1961;48.194;16.370;2022-12-18T14:09:17;71.57;;;21.75;;
3891;SDS011;1961;48.194;16.370;2022-12-18T14:11:48;74.00;;;23.73;;
3891;SDS011;1961;48.194;16.370;2022-12-18T14:14:18;72.25;;;21.65;;
3891;SDS011;1961;48.194;16.370;2022-12-18T14:16:45;78.13;;;24.08;;
3891;SDS011;1961;48.194;16.370;2022-12-18T14:19:15;77.50;;;23.05;;
3891;SDS011;1961;48.194;16.370;2022-12-18T14:21:46;76.75;;;20.58;;
3891;SDS011;1961;48.194;16.370;2022-12-18T14:24:20;79.30;;;25.17;;
3891;SDS011;1961;48.194;16.370;2022-12-18T14:26:48;72.70;;;24.48;;
3891;SDS011;1961;48.194;16.370;2022-12-18T14:29:28;73.50;;;23.30;;
3891;SDS011;1961;48.194;16.370;2022-12-18T14:32:14;87.50;;;26.10;;
3891;SDS011;1961;48.194;16.370;2022-12-18T14:37:13;88.32;;;24.48;;
3891;SDS011;1961;48.194;16.370;2022-12-18T14:39:51;84.97;;;25.42;;
3891;SDS011;1961;48.194;16.370;2022-12-18T14:42:19;81.43;;;26.95;;
3891;SDS011;1961;48.194;16.370;2022-12-18T14:44:45;77.25;;;22.80;;
3891;SDS011;1961;48.194;16.370;2022-12-18T14:47:17;86.15;;;24.40;;
3891;SDS011;1961;48.194;16.370;2022-12-18T14:49:44;80.57;;;25.38;;
3891;SDS011;1961;48.194;16.370;2022-12-18T14:52:23;81.60;;;25.33;;
3891;SDS011;1961;48.194;16.370;2022-12-18T14:54:52;87.97;;;26.65;;
3891;SDS011;1961;48.194;16.370;2022-12-18T14:57:25;88.03;;;25.58;;
3891;SDS011;1961;48.194;16.370;2022-12-18T15:00:03;77.13;;;22.77;;
3891;SDS011;1961;48.194;16.370;2022-12-18T15:02:29;69.20;;;21.60;;
3891;SDS011;1961;48.194;16.370;2022-12-18T15:05:02;82.47;;;23.95;;
3891;SDS011;1961;48.194;16.370;2022-12-18T15:07:39;84.32;;;26.38;;
3891;SDS011;1961;48.194;16.370;2022-12-18T15:12:43;83.97;;;25.20;;
3891;SDS011;1961;48.194;16.370;2022-12-18T15:18:05;80.57;;;26.23;;
3891;SDS011;1961;48.194;16.370;2022-12-18T15:23:28;92.10;;;24.90;;
3891;SDS011;1961;48.194;16.370;2022-12-18T15:25:56;87.07;;;25.83;;
3891;SDS011;1961;48.194;16.370;2022-12-18T15:28:24;76.68;;;23.45;;
3891;SDS011;1961;48.194;16.370;2022-12-18T15:33:39;77.05;;;23.63;;
3891;SDS011;1961;48.194;16.370;2022-12-18T15:36:10;82.20;;;23.83;;
3891;SDS011;1961;48.194;16.370;2022-12-18T15:38:37;76.25;;;25.25;;
3891;SDS011;1961;48.194;16.370;2022-12-18T15:41:03;78.88;;;24.17;;
3891;SDS011;1961;48.194;16.370;2022-12-18T15:43:30;79.35;;;24.50;;
3891;SDS011;1961;48.194;16.370;2022-12-18T15:46:10;84.97;;;24.20;;
3891;SDS011;1961;48.194;16.370;2022-12-18T15:48:44;83.95;;;24.92;;
3891;SDS011;1961;48.194;16.370;2022-12-18T15:51:13;83.18;;;25.80;;
3891;SDS011;1961;48.194;16.370;2022-12-18T15:53:40;77.60;;;25.35;;
3891;SDS011;1961;48.194;16.370;2022-12-18T15:56:10;81.82;;;24.55;;
3891;SDS011;1961;48.194;16.370;2022-12-18T15:58:55;78.10;;;25.88;;
3891;SDS011;1961;48.194;16.370;2022-12-18T16:01:23;87.63;;;26.65;;
3891;SDS011;1961;48.194;16.370;2022-12-18T16:03:50;92.38;;;27.17;;
3891;SDS011;1961;48.194;16.370;2022-12-18T16:06:16;78.53;;;23.27;;
3891;SDS011;1961;48.194;16.370;2022-12-18T16:08:43;79.18;;;24.50;;
3891;SDS011;1961;48.194;16.370;2022-12-18T16:11:26;82.65;;;25.13;;
3891;SDS011;1961;48.194;16.370;2022-12-18T16:14:13;86.03;;;24.50;;
3891;SDS011;1961;48.194;16.370;2022-12-18T16:16:42;86.97;;;25.55;;
3891;SDS011;1961;48.194;16.370;2022-12-18T16:19:08;83.35;;;24.30;;
3891;SDS011;1961;48.194;16.370;2022-12-18T16:21:37;79.82;;;23.50;;
3891;SDS011;1961;48.194;16.370;2022-12-18T16:24:03;85.00;;;27.10;;
3891;SDS011;1961;48.194;16.370;2022-12-18T16:26:29;72.85;;;21.63;;
3891;SDS011;1961;48.194;16.370;2022-12-18T16:28:56;82.15;;;24.52;;
3891;SDS011;1961;48.194;16.370;2022-12-18T16:31:22;86.68;;;26.15;;
3891;SDS011;1961;48.194;16.370;2022-12-18T16:33:49;77.75;;;22.40;;
3891;SDS011;1961;48.194;16.370;2022-12-18T16:36:16;79.53;;;25.40;;